sensor_id;sensor_type;location;lat;lon;timestamp;temperature;humidity
10722;DHT22;5412;59.450;18.124;2023-03-21T00:00:45;2.10;99.90
10722;DHT22;5412;59.450;18.124;2023-03-21T00:03:12;2.00;99.90
10722;DHT22;5412;59.450;18.124;2023-03-21T00:05:40;1.90;99.90
10722;DHT22;5412;59.450;18.124;2023-03-21T00:08:06;2.00;99.90
10722;DHT22;5412;59.450;18.124;2023-03-21T00:10:31;2.00;99.90
10722;DHT22;5412;59.450;18.124;2023-03-21T00:12:57;2.10;99.90
10722;DHT22;5412;59.450;18.124;2023-03-21T00:15:24;2.20;99.90
10722;DHT22;5412;59.450;18.124;2023-03-21T00:17:55;2.20;99.90
10722;DHT22;5412;59.450;18.124;2023-03-21T00:20:32;2.30;99.90
10722;DHT22;5412;59.450;18.124;2023-03-21T00:23:02;2.30;99.90
10722;DHT22;5412;59.450;18.124;2023-03-21T00:25:28;2.30;99.90
10722;DHT22;5412;59.450;18.124;2023-03-21T00:27:56;2.30;99.90
10722;DHT22;5412;59.450;18.124;2023-03-21T00:30:22;2.30;99.90
10722;DHT22;5412;59.450;18.124;2023-03-21T00:32:49;2.50;99.90
10722;DHT22;5412;59.450;18.124;2023-03-21T00:35:15;2.50;99.90
10722;DHT22;5412;59.450;18.124;2023-03-21T00:37:40;2.60;99.90
10722;DHT22;5412;59.450;18.124;2023-03-21T00:40:08;2.50;99.90
10722;DHT22;5412;59.450;18.124;2023-03-21T00:42:35;2.70;99.90
10722;DHT22;5412;59.450;18.124;2023-03-21T00:45:02;2.70;99.90
10722;DHT22;5412;59.450;18.124;2023-03-21T00:47:27;2.50;99.90
10722;DHT22;5412;59.450;18.124;2023-03-21T00:49:53;2.50;99.90
10722;DHT22;5412;59.450;18.124;2023-03-21T00:52:19;2.60;99.90
10722;DHT22;5412;59.450;18.124;2023-03-21T00:54:45;2.70;99.90
10722;DHT22;5412;59.450;18.124;2023-03-21T00:57:11;2.70;99.90
10722;DHT22;5412;59.450;18.124;2023-03-21T00:59:37;2.60;99.90
10722;DHT22;5412;59.450;18.124;2023-03-21T01:02:02;2.60;99.90
10722;DHT22;5412;59.450;18.124;2023-03-21T01:04:32;2.60;99.90
10722;DHT22;5412;59.450;18.124;2023-03-21T01:06:58;2.50;99.90
10722;DHT22;5412;59.450;18.124;2023-03-21T01:09:24;2.50;99.90
10722;DHT22;5412;59.450;18.124;2023-03-21T01:11:51;2.50;99.90
10722;DHT22;5412;59.450;18.124;2023-03-21T01:14:19;2.50;99.90
10722;DHT22;5412;59.450;18.124;2023-03-21T01:16:45;2.30;99.90
10722;DHT22;5412;59.450;18.124;2023-03-21T01:19:14;2.60;99.90
10722;DHT22;5412;59.450;18.124;2023-03-21T01:21:40;2.60;99.90
10722;DHT22;5412;59.450;18.124;2023-03-21T01:24:06;2.60;99.90
10722;DHT22;5412;59.450;18.124;2023-03-21T01:26:33;2.70;99.90
10722;DHT22;5412;59.450;18.124;2023-03-21T01:28:59;2.70;99.90
10722;DHT22;5412;59.450;18.124;2023-03-21T01:31:24;2.80;99.90
10722;DHT22;5412;59.450;18.124;2023-03-21T01:33:50;2.70;99.90
10722;DHT22;5412;59.450;18.124;2023-03-21T01:36:21;2.60;99.90
10722;DHT22;5412;59.450;18.124;2023-03-21T01:38:47;2.60;99.90
10722;DHT22;5412;59.450;18.124;2023-03-21T01:41:23;2.60;99.90
10722;DHT22;5412;59.450;18.124;2023-03-21T01:43:49;2.60;99.90
10722;DHT22;5412;59.450;18.124;2023-03-21T01:48:52;2.40;99.90
10722;DHT22;5412;59.450;18.124;2023-03-21T01:51:21;2.40;99.90
10722;DHT22;5412;59.450;18.124;2023-03-21T01:53:48;2.40;99.90
10722;DHT22;5412;59.450;18.124;2023-03-21T01:56:19;2.40;99.90
10722;DHT22;5412;59.450;18.124;2023-03-21T01:58:48;2.40;99.90
10722;DHT22;5412;59.450;18.124;2023-03-21T02:01:15;2.40;99.90
10722;DHT22;5412;59.450;18.124;2023-03-21T02:03:44;2.50;99.90
10722;DHT22;5412;59.450;18.124;2023-03-21T02:08:55;2.60;99.90
10722;DHT22;5412;59.450;18.124;2023-03-21T02:11:21;2.60;99.90
10722;DHT22;5412;59.450;18.124;2023-03-21T02:13:48;2.60;99.90
10722;DHT22;5412;59.450;18.124;2023-03-21T02:16:20;2.80;99.90
10722;DHT22;5412;59.450;18.124;2023-03-21T02:24:19;2.80;99.90
10722;DHT22;5412;59.450;18.124;2023-03-21T02:27:06;2.80;99.90
10722;DHT22;5412;59.450;18.124;2023-03-21T02:30:02;2.70;99.90
10722;DHT22;5412;59.450;18.124;2023-03-21T02:38:08;2.70;99.90
10722;DHT22;5412;59.450;18.124;2023-03-21T02:40:54;2.70;99.90
10722;DHT22;5412;59.450;18.124;2023-03-21T02:49:06;2.80;99.90
10722;DHT22;5412;59.450;18.124;2023-03-21T02:51:34;2.90;99.90
10722;DHT22;5412;59.450;18.124;2023-03-21T02:54:08;2.90;99.90
10722;DHT22;5412;59.450;18.124;2023-03-21T02:56:37;3.00;99.90
10722;DHT22;5412;59.450;18.124;2023-03-21T02:59:05;2.90;99.90
10722;DHT22;5412;59.450;18.124;2023-03-21T03:01:32;2.90;99.90
10722;DHT22;5412;59.450;18.124;2023-03-21T03:03:58;2.80;99.90
10722;DHT22;5412;59.450;18.124;2023-03-21T03:06:28;2.80;99.90
10722;DHT22;5412;59.450;18.124;2023-03-21T03:08:59;2.70;99.90
10722;DHT22;5412;59.450;18.124;2023-03-21T03:11:38;2.70;99.90
10722;DHT22;5412;59.450;18.124;2023-03-21T03:19:35;2.50;99.90
10722;DHT22;5412;59.450;18.124;2023-03-21T03:22:12;2.60;99.90
10722;DHT22;5412;59.450;18.124;2023-03-21T03:24:52;2.70;99.90
10722;DHT22;5412;59.450;18.124;2023-03-21T03:27:24;2.70;99.90
10722;DHT22;5412;59.450;18.124;2023-03-21T03:29:51;2.80;99.90
10722;DHT22;5412;59.450;18.124;2023-03-21T03:32:21;2.70;99.90
10722;DHT22;5412;59.450;18.124;2023-03-21T03:34:51;2.70;99.90
10722;DHT22;5412;59.450;18.124;2023-03-21T03:37:27;2.70;99.90
10722;DHT22;5412;59.450;18.124;2023-03-21T03:40:15;2.70;99.90
10722;DHT22;5412;59.450;18.124;2023-03-21T03:45:13;2.70;99.90
10722;DHT22;5412;59.450;18.124;2023-03-21T03:50:20;2.70;99.90
10722;DHT22;5412;59.450;18.124;2023-03-21T03:52:56;2.80;99.90
10722;DHT22;5412;59.450;18.124;2023-03-21T03:55:24;2.70;99.90
10722;DHT22;5412;59.450;18.124;2023-03-21T03:57:52;2.70;99.90
10722;DHT22;5412;59.450;18.124;2023-03-21T04:00:19;2.70;99.90
10722;DHT22;5412;59.450;18.124;2023-03-21T04:02:45;2.70;99.90
10722;DHT22;5412;59.450;18.124;2023-03-21T04:05:12;2.70;99.90
10722;DHT22;5412;59.450;18.124;2023-03-21T04:07:38;2.70;99.90
10722;DHT22;5412;59.450;18.124;2023-03-21T04:10:04;2.50;99.90
10722;DHT22;5412;59.450;18.124;2023-03-21T04:12:30;2.30;99.90
10722;DHT22;5412;59.450;18.124;2023-03-21T04:14:56;2.30;99.90
10722;DHT22;5412;59.450;18.124;2023-03-21T04:17:22;2.30;99.90
10722;DHT22;5412;59.450;18.124;2023-03-21T04:19:48;2.40;99.90
10722;DHT22;5412;59.450;18.124;2023-03-21T04:22:16;2.50;99.90
10722;DHT22;5412;59.450;18.124;2023-03-21T04:24:42;2.50;99.90
10722;DHT22;5412;59.450;18.124;2023-03-21T04:27:08;2.60;99.90
10722;DHT22;5412;59.450;18.124;2023-03-21T04:29:34;2.60;99.90
10722;DHT22;5412;59.450;18.124;2023-03-21T04:32:00;2.70;99.90
10722;DHT22;5412;59.450;18.124;2023-03-21T04:34:26;2.50;99.90
10722;DHT22;5412;59.450;18.124;2023-03-21T04:36:55;2.60;99.90
10722;DHT22;5412;59.450;18.124;2023-03-21T04:39:20;2.60;99.90
10722;DHT22;5412;59.450;18.124;2023-03-21T04:41:47;2.70;99.90
10722;DHT22;5412;59.450;18.124;2023-03-21T04:44:15;2.70;99.90
10722;DHT22;5412;59.450;18.124;2023-03-21T04:46:41;2.60;99.90
10722;DHT22;5412;59.450;18.124;2023-03-21T04:49:07;2.50;99.90
10722;DHT22;5412;59.450;18.124;2023-03-21T04:51:34;2.30;99.90
10722;DHT22;5412;59.450;18.124;2023-03-21T04:54:00;2.30;99.90
10722;DHT22;5412;59.450;18.124;2023-03-21T04:56:27;2.40;99.90
10722;DHT22;5412;59.450;18.124;2023-03-21T04:59:12;2.20;99.90
10722;DHT22;5412;59.450;18.124;2023-03-21T05:01:38;2.30;99.90
10722;DHT22;5412;59.450;18.124;2023-03-21T05:04:06;2.30;99.90
10722;DHT22;5412;59.450;18.124;2023-03-21T05:06:32;2.40;99.90
10722;DHT22;5412;59.450;18.124;2023-03-21T05:08:59;2.50;99.90
10722;DHT22;5412;59.450;18.124;2023-03-21T05:11:29;2.50;99.90
10722;DHT22;5412;59.450;18.124;2023-03-21T05:13:55;2.40;99.90
10722;DHT22;5412;59.450;18.124;2023-03-21T05:16:21;2.50;99.90
10722;DHT22;5412;59.450;18.124;2023-03-21T05:18:52;2.40;99.90
10722;DHT22;5412;59.450;18.124;2023-03-21T05:21:20;2.30;99.90
10722;DHT22;5412;59.450;18.124;2023-03-21T05:23:46;2.30;99.90
10722;DHT22;5412;59.450;18.124;2023-03-21T05:26:20;2.30;99.90
10722;DHT22;5412;59.450;18.124;2023-03-21T05:28:46;2.10;99.90
10722;DHT22;5412;59.450;18.124;2023-03-21T05:31:17;2.10;99.90
10722;DHT22;5412;59.450;18.124;2023-03-21T05:33:46;2.30;99.90
10722;DHT22;5412;59.450;18.124;2023-03-21T05:36:12;2.50;99.90
10722;DHT22;5412;59.450;18.124;2023-03-21T05:38:38;2.50;99.90
10722;DHT22;5412;59.450;18.124;2023-03-21T05:41:11;2.50;99.90
10722;DHT22;5412;59.450;18.124;2023-03-21T05:43:36;2.60;99.90
10722;DHT22;5412;59.450;18.124;2023-03-21T05:46:02;2.50;99.90
10722;DHT22;5412;59.450;18.124;2023-03-21T05:48:28;2.20;99.90
10722;DHT22;5412;59.450;18.124;2023-03-21T05:50:54;1.90;99.90
10722;DHT22;5412;59.450;18.124;2023-03-21T05:53:20;2.20;99.90
10722;DHT22;5412;59.450;18.124;2023-03-21T05:55:45;2.30;99.90
10722;DHT22;5412;59.450;18.124;2023-03-21T05:58:11;2.30;99.90
10722;DHT22;5412;59.450;18.124;2023-03-21T06:00:37;2.50;99.90
10722;DHT22;5412;59.450;18.124;2023-03-21T06:03:03;2.60;99.90
10722;DHT22;5412;59.450;18.124;2023-03-21T06:05:29;2.70;99.90
10722;DHT22;5412;59.450;18.124;2023-03-21T06:07:54;2.60;99.90
10722;DHT22;5412;59.450;18.124;2023-03-21T06:10:20;2.50;99.90
10722;DHT22;5412;59.450;18.124;2023-03-21T06:12:46;2.60;99.90
10722;DHT22;5412;59.450;18.124;2023-03-21T06:15:12;2.60;99.90
10722;DHT22;5412;59.450;18.124;2023-03-21T06:17:38;2.50;99.90
10722;DHT22;5412;59.450;18.124;2023-03-21T06:20:04;2.60;99.90
10722;DHT22;5412;59.450;18.124;2023-03-21T06:22:32;2.80;99.90
10722;DHT22;5412;59.450;18.124;2023-03-21T06:24:57;2.90;99.90
10722;DHT22;5412;59.450;18.124;2023-03-21T06:27:23;3.00;99.90
10722;DHT22;5412;59.450;18.124;2023-03-21T06:29:50;3.10;99.90
10722;DHT22;5412;59.450;18.124;2023-03-21T06:32:15;3.10;99.90
10722;DHT22;5412;59.450;18.124;2023-03-21T06:34:41;3.10;99.90
10722;DHT22;5412;59.450;18.124;2023-03-21T06:37:07;3.00;99.90
10722;DHT22;5412;59.450;18.124;2023-03-21T06:39:34;3.00;99.90
10722;DHT22;5412;59.450;18.124;2023-03-21T06:42:00;2.80;99.90
10722;DHT22;5412;59.450;18.124;2023-03-21T06:44:26;2.80;99.90
10722;DHT22;5412;59.450;18.124;2023-03-21T06:46:52;2.90;99.90
10722;DHT22;5412;59.450;18.124;2023-03-21T06:49:18;2.90;99.90
10722;DHT22;5412;59.450;18.124;2023-03-21T06:51:44;2.90;99.90
10722;DHT22;5412;59.450;18.124;2023-03-21T06:54:10;3.00;99.90
10722;DHT22;5412;59.450;18.124;2023-03-21T06:56:36;3.20;99.90
10722;DHT22;5412;59.450;18.124;2023-03-21T06:59:02;3.20;99.90
10722;DHT22;5412;59.450;18.124;2023-03-21T07:01:28;3.20;99.90
10722;DHT22;5412;59.450;18.124;2023-03-21T07:03:56;3.30;99.90
10722;DHT22;5412;59.450;18.124;2023-03-21T07:06:24;3.40;99.90
10722;DHT22;5412;59.450;18.124;2023-03-21T07:08:54;3.60;99.90
10722;DHT22;5412;59.450;18.124;2023-03-21T07:11:20;3.60;99.90
10722;DHT22;5412;59.450;18.124;2023-03-21T07:13:47;3.60;99.90
10722;DHT22;5412;59.450;18.124;2023-03-21T07:16:15;3.70;99.90
10722;DHT22;5412;59.450;18.124;2023-03-21T07:18:41;3.80;99.90
10722;DHT22;5412;59.450;18.124;2023-03-21T07:21:07;3.70;99.90
10722;DHT22;5412;59.450;18.124;2023-03-21T07:23:34;3.70;99.90
10722;DHT22;5412;59.450;18.124;2023-03-21T07:25:59;3.70;99.90
10722;DHT22;5412;59.450;18.124;2023-03-21T07:28:25;3.80;99.90
10722;DHT22;5412;59.450;18.124;2023-03-21T07:30:57;3.70;99.90
10722;DHT22;5412;59.450;18.124;2023-03-21T07:33:23;3.80;99.90
10722;DHT22;5412;59.450;18.124;2023-03-21T07:35:50;3.70;99.90
10722;DHT22;5412;59.450;18.124;2023-03-21T07:38:16;3.60;99.90
10722;DHT22;5412;59.450;18.124;2023-03-21T07:40:43;3.60;99.90
10722;DHT22;5412;59.450;18.124;2023-03-21T07:43:09;3.60;99.90
10722;DHT22;5412;59.450;18.124;2023-03-21T07:45:35;3.60;99.90
10722;DHT22;5412;59.450;18.124;2023-03-21T07:48:01;3.70;99.90
10722;DHT22;5412;59.450;18.124;2023-03-21T07:50:26;3.60;99.90
10722;DHT22;5412;59.450;18.124;2023-03-21T07:52:52;3.60;99.90
10722;DHT22;5412;59.450;18.124;2023-03-21T07:55:19;3.80;99.90
10722;DHT22;5412;59.450;18.124;2023-03-21T07:57:44;3.80;99.90
10722;DHT22;5412;59.450;18.124;2023-03-21T08:00:11;3.80;99.90
10722;DHT22;5412;59.450;18.124;2023-03-21T08:02:38;4.00;99.90
10722;DHT22;5412;59.450;18.124;2023-03-21T08:05:04;4.10;99.90
10722;DHT22;5412;59.450;18.124;2023-03-21T08:07:30;4.00;99.90
10722;DHT22;5412;59.450;18.124;2023-03-21T08:09:57;4.10;99.90
10722;DHT22;5412;59.450;18.124;2023-03-21T08:12:22;4.30;99.90
10722;DHT22;5412;59.450;18.124;2023-03-21T08:14:48;4.40;99.90
10722;DHT22;5412;59.450;18.124;2023-03-21T08:17:14;4.50;99.90
10722;DHT22;5412;59.450;18.124;2023-03-21T08:19:39;4.40;99.90
10722;DHT22;5412;59.450;18.124;2023-03-21T08:22:05;4.40;99.90
10722;DHT22;5412;59.450;18.124;2023-03-21T08:24:31;4.50;99.90
10722;DHT22;5412;59.450;18.124;2023-03-21T08:26:59;4.50;99.90
10722;DHT22;5412;59.450;18.124;2023-03-21T08:29:25;4.30;99.90
10722;DHT22;5412;59.450;18.124;2023-03-21T08:31:51;4.30;99.90
10722;DHT22;5412;59.450;18.124;2023-03-21T08:34:18;4.40;99.90
10722;DHT22;5412;59.450;18.124;2023-03-21T08:36:44;4.30;99.90
10722;DHT22;5412;59.450;18.124;2023-03-21T08:39:11;4.40;99.90
10722;DHT22;5412;59.450;18.124;2023-03-21T08:41:37;4.30;99.90
10722;DHT22;5412;59.450;18.124;2023-03-21T08:44:04;4.10;99.90
10722;DHT22;5412;59.450;18.124;2023-03-21T08:46:31;4.20;99.90
10722;DHT22;5412;59.450;18.124;2023-03-21T08:48:57;4.30;99.90
10722;DHT22;5412;59.450;18.124;2023-03-21T08:51:23;4.50;99.90
10722;DHT22;5412;59.450;18.124;2023-03-21T08:53:49;4.60;99.90
10722;DHT22;5412;59.450;18.124;2023-03-21T08:56:17;4.70;99.90
10722;DHT22;5412;59.450;18.124;2023-03-21T08:58:43;5.00;99.90
10722;DHT22;5412;59.450;18.124;2023-03-21T09:01:10;5.00;99.90
10722;DHT22;5412;59.450;18.124;2023-03-21T09:03:40;5.00;99.90
10722;DHT22;5412;59.450;18.124;2023-03-21T09:06:07;5.30;99.90
10722;DHT22;5412;59.450;18.124;2023-03-21T09:08:36;5.30;99.90
10722;DHT22;5412;59.450;18.124;2023-03-21T09:11:02;5.30;99.90
10722;DHT22;5412;59.450;18.124;2023-03-21T09:13:28;5.40;99.90
10722;DHT22;5412;59.450;18.124;2023-03-21T09:15:54;5.30;99.90
10722;DHT22;5412;59.450;18.124;2023-03-21T09:18:22;5.50;99.90
10722;DHT22;5412;59.450;18.124;2023-03-21T09:21:08;5.70;99.90
10722;DHT22;5412;59.450;18.124;2023-03-21T09:23:37;5.50;99.90
10722;DHT22;5412;59.450;18.124;2023-03-21T09:26:04;5.50;99.90
10722;DHT22;5412;59.450;18.124;2023-03-21T09:28:31;5.40;99.90
10722;DHT22;5412;59.450;18.124;2023-03-21T09:30:58;5.50;99.90
10722;DHT22;5412;59.450;18.124;2023-03-21T09:33:25;5.60;99.90
10722;DHT22;5412;59.450;18.124;2023-03-21T09:35:53;5.80;99.90
10722;DHT22;5412;59.450;18.124;2023-03-21T09:38:19;6.00;99.90
10722;DHT22;5412;59.450;18.124;2023-03-21T09:43:44;6.00;99.90
10722;DHT22;5412;59.450;18.124;2023-03-21T09:49:15;6.00;99.90
10722;DHT22;5412;59.450;18.124;2023-03-21T09:51:48;6.10;99.90
10722;DHT22;5412;59.450;18.124;2023-03-21T09:56:49;6.10;99.90
10722;DHT22;5412;59.450;18.124;2023-03-21T09:59:36;6.10;99.90
10722;DHT22;5412;59.450;18.124;2023-03-21T10:04:58;6.10;99.90
10722;DHT22;5412;59.450;18.124;2023-03-21T10:07:26;6.20;99.90
10722;DHT22;5412;59.450;18.124;2023-03-21T10:09:57;6.20;99.90
10722;DHT22;5412;59.450;18.124;2023-03-21T10:12:24;6.30;99.90
10722;DHT22;5412;59.450;18.124;2023-03-21T10:14:56;6.50;99.90
10722;DHT22;5412;59.450;18.124;2023-03-21T10:17:34;6.80;99.90
10722;DHT22;5412;59.450;18.124;2023-03-21T10:22:41;6.90;99.90
10722;DHT22;5412;59.450;18.124;2023-03-21T10:25:12;6.90;99.90
10722;DHT22;5412;59.450;18.124;2023-03-21T10:27:39;6.90;99.90
10722;DHT22;5412;59.450;18.124;2023-03-21T10:30:05;7.00;99.90
10722;DHT22;5412;59.450;18.124;2023-03-21T10:32:32;7.00;99.90
10722;DHT22;5412;59.450;18.124;2023-03-21T10:34:59;7.20;99.90
10722;DHT22;5412;59.450;18.124;2023-03-21T10:37:26;7.10;99.90
10722;DHT22;5412;59.450;18.124;2023-03-21T10:39:53;7.20;99.90
10722;DHT22;5412;59.450;18.124;2023-03-21T10:42:24;7.10;99.90
10722;DHT22;5412;59.450;18.124;2023-03-21T10:44:52;7.20;99.90
10722;DHT22;5412;59.450;18.124;2023-03-21T10:47:30;7.30;99.90
10722;DHT22;5412;59.450;18.124;2023-03-21T10:50:04;7.30;99.90
10722;DHT22;5412;59.450;18.124;2023-03-21T10:52:31;7.40;99.90
10722;DHT22;5412;59.450;18.124;2023-03-21T10:57:37;7.30;99.90
10722;DHT22;5412;59.450;18.124;2023-03-21T11:00:04;7.30;99.90
10722;DHT22;5412;59.450;18.124;2023-03-21T11:02:40;7.50;99.90
10722;DHT22;5412;59.450;18.124;2023-03-21T11:05:21;7.70;99.90
10722;DHT22;5412;59.450;18.124;2023-03-21T11:08:14;7.80;99.90
10722;DHT22;5412;59.450;18.124;2023-03-21T11:10:59;7.70;99.90
10722;DHT22;5412;59.450;18.124;2023-03-21T11:13:33;7.60;99.90
10722;DHT22;5412;59.450;18.124;2023-03-21T11:16:11;7.50;99.90
10722;DHT22;5412;59.450;18.124;2023-03-21T11:18:44;7.60;99.90
10722;DHT22;5412;59.450;18.124;2023-03-21T11:21:15;7.80;99.90
10722;DHT22;5412;59.450;18.124;2023-03-21T11:23:43;7.90;99.90
10722;DHT22;5412;59.450;18.124;2023-03-21T11:26:24;8.00;99.90
10722;DHT22;5412;59.450;18.124;2023-03-21T11:28:51;7.70;99.90
10722;DHT22;5412;59.450;18.124;2023-03-21T11:31:18;7.90;99.90
10722;DHT22;5412;59.450;18.124;2023-03-21T11:33:51;7.90;99.90
10722;DHT22;5412;59.450;18.124;2023-03-21T11:38:48;7.80;99.90
10722;DHT22;5412;59.450;18.124;2023-03-21T11:41:46;7.90;99.90
10722;DHT22;5412;59.450;18.124;2023-03-21T11:44:33;7.90;99.90
10722;DHT22;5412;59.450;18.124;2023-03-21T11:47:00;7.80;99.90
10722;DHT22;5412;59.450;18.124;2023-03-21T11:49:26;7.80;99.90
10722;DHT22;5412;59.450;18.124;2023-03-21T11:57:36;7.90;99.90
10722;DHT22;5412;59.450;18.124;2023-03-21T12:00:17;7.70;99.90
10722;DHT22;5412;59.450;18.124;2023-03-21T12:05:36;7.60;99.90
10722;DHT22;5412;59.450;18.124;2023-03-21T12:08:28;7.70;99.90
10722;DHT22;5412;59.450;18.124;2023-03-21T12:11:16;7.90;99.90
10722;DHT22;5412;59.450;18.124;2023-03-21T12:13:53;8.10;99.90
10722;DHT22;5412;59.450;18.124;2023-03-21T12:24:25;8.30;99.90
10722;DHT22;5412;59.450;18.124;2023-03-21T12:27:10;8.60;99.90
10722;DHT22;5412;59.450;18.124;2023-03-21T12:43:50;8.90;99.90
10722;DHT22;5412;59.450;18.124;2023-03-21T12:46:28;8.80;99.90
10722;DHT22;5412;59.450;18.124;2023-03-21T12:51:43;9.00;99.90
10722;DHT22;5412;59.450;18.124;2023-03-21T12:56:58;9.20;99.90
10722;DHT22;5412;59.450;18.124;2023-03-21T13:04:53;9.60;99.90
10722;DHT22;5412;59.450;18.124;2023-03-21T13:07:21;9.50;99.90
10722;DHT22;5412;59.450;18.124;2023-03-21T13:09:47;9.60;99.90
10722;DHT22;5412;59.450;18.124;2023-03-21T13:14:58;9.50;99.90
10722;DHT22;5412;59.450;18.124;2023-03-21T13:17:45;9.60;99.90
10722;DHT22;5412;59.450;18.124;2023-03-21T13:20:25;9.50;99.90
10722;DHT22;5412;59.450;18.124;2023-03-21T13:22:54;9.30;99.90
10722;DHT22;5412;59.450;18.124;2023-03-21T13:25:22;9.20;99.90
10722;DHT22;5412;59.450;18.124;2023-03-21T13:28:15;9.20;99.90
10722;DHT22;5412;59.450;18.124;2023-03-21T13:30:42;8.90;99.90
10722;DHT22;5412;59.450;18.124;2023-03-21T13:33:22;8.80;99.90
10722;DHT22;5412;59.450;18.124;2023-03-21T13:36:04;8.90;99.90
10722;DHT22;5412;59.450;18.124;2023-03-21T13:38:33;8.80;99.90
10722;DHT22;5412;59.450;18.124;2023-03-21T13:41:17;8.70;99.90
10722;DHT22;5412;59.450;18.124;2023-03-21T13:48:58;8.80;99.90
10722;DHT22;5412;59.450;18.124;2023-03-21T13:54:00;8.60;99.90
10722;DHT22;5412;59.450;18.124;2023-03-21T13:56:26;8.60;99.90
10722;DHT22;5412;59.450;18.124;2023-03-21T13:59:02;8.60;99.90
10722;DHT22;5412;59.450;18.124;2023-03-21T14:01:39;8.50;99.90
10722;DHT22;5412;59.450;18.124;2023-03-21T14:04:15;8.40;99.90
10722;DHT22;5412;59.450;18.124;2023-03-21T14:11:58;8.30;99.90
10722;DHT22;5412;59.450;18.124;2023-03-21T14:14:30;8.40;99.90
10722;DHT22;5412;59.450;18.124;2023-03-21T14:16:58;8.50;99.90
10722;DHT22;5412;59.450;18.124;2023-03-21T14:19:31;8.30;99.90
10722;DHT22;5412;59.450;18.124;2023-03-21T14:21:57;8.40;99.90
10722;DHT22;5412;59.450;18.124;2023-03-21T14:24:23;8.40;99.90
10722;DHT22;5412;59.450;18.124;2023-03-21T14:26:51;8.50;99.90
10722;DHT22;5412;59.450;18.124;2023-03-21T14:29:32;8.50;99.90
10722;DHT22;5412;59.450;18.124;2023-03-21T14:32:00;8.30;99.90
10722;DHT22;5412;59.450;18.124;2023-03-21T14:34:29;8.00;99.90
10722;DHT22;5412;59.450;18.124;2023-03-21T14:36:56;7.90;99.90
10722;DHT22;5412;59.450;18.124;2023-03-21T14:39:26;7.90;99.90
10722;DHT22;5412;59.450;18.124;2023-03-21T14:42:04;7.90;99.90
10722;DHT22;5412;59.450;18.124;2023-03-21T14:44:37;7.90;99.90
10722;DHT22;5412;59.450;18.124;2023-03-21T14:47:07;7.80;99.90
10722;DHT22;5412;59.450;18.124;2023-03-21T14:49:36;7.90;99.90
10722;DHT22;5412;59.450;18.124;2023-03-21T14:52:32;8.10;99.90
10722;DHT22;5412;59.450;18.124;2023-03-21T14:55:10;8.10;99.90
10722;DHT22;5412;59.450;18.124;2023-03-21T14:57:38;8.10;99.90
10722;DHT22;5412;59.450;18.124;2023-03-21T15:00:07;8.00;99.90
10722;DHT22;5412;59.450;18.124;2023-03-21T15:02:39;7.90;99.90
10722;DHT22;5412;59.450;18.124;2023-03-21T15:07:40;7.90;99.90
10722;DHT22;5412;59.450;18.124;2023-03-21T15:10:14;7.90;99.90
10722;DHT22;5412;59.450;18.124;2023-03-21T15:12:53;7.90;99.90
10722;DHT22;5412;59.450;18.124;2023-03-21T15:15:20;7.80;99.90
10722;DHT22;5412;59.450;18.124;2023-03-21T15:17:47;7.70;99.90
10722;DHT22;5412;59.450;18.124;2023-03-21T15:20:15;7.50;99.90
10722;DHT22;5412;59.450;18.124;2023-03-21T15:22:46;7.40;99.90
10722;DHT22;5412;59.450;18.124;2023-03-21T15:25:18;7.50;99.90
10722;DHT22;5412;59.450;18.124;2023-03-21T15:27:48;7.40;99.90
10722;DHT22;5412;59.450;18.124;2023-03-21T15:30:25;7.40;99.90
10722;DHT22;5412;59.450;18.124;2023-03-21T15:32:54;7.60;99.90
10722;DHT22;5412;59.450;18.124;2023-03-21T15:35:42;7.50;99.90
10722;DHT22;5412;59.450;18.124;2023-03-21T15:38:39;7.60;99.90
10722;DHT22;5412;59.450;18.124;2023-03-21T15:43:39;7.50;99.90
10722;DHT22;5412;59.450;18.124;2023-03-21T15:46:38;7.60;99.90
10722;DHT22;5412;59.450;18.124;2023-03-21T15:52:17;7.60;99.90
10722;DHT22;5412;59.450;18.124;2023-03-21T15:54:45;7.80;99.90
10722;DHT22;5412;59.450;18.124;2023-03-21T15:57:29;7.80;99.90
10722;DHT22;5412;59.450;18.124;2023-03-21T16:00:19;7.80;99.90
10722;DHT22;5412;59.450;18.124;2023-03-21T16:02:45;7.80;99.90
10722;DHT22;5412;59.450;18.124;2023-03-21T16:07:45;7.70;99.90
10722;DHT22;5412;59.450;18.124;2023-03-21T16:10:27;7.80;99.90
10722;DHT22;5412;59.450;18.124;2023-03-21T16:12:53;7.80;99.90
10722;DHT22;5412;59.450;18.124;2023-03-21T16:15:19;7.70;99.90
10722;DHT22;5412;59.450;18.124;2023-03-21T16:17:53;7.70;99.90
10722;DHT22;5412;59.450;18.124;2023-03-21T16:20:27;7.70;99.90
10722;DHT22;5412;59.450;18.124;2023-03-21T16:22:53;7.70;99.90
10722;DHT22;5412;59.450;18.124;2023-03-21T16:25:19;7.80;99.90
10722;DHT22;5412;59.450;18.124;2023-03-21T16:27:47;7.70;99.90
10722;DHT22;5412;59.450;18.124;2023-03-21T16:30:14;7.60;99.90
10722;DHT22;5412;59.450;18.124;2023-03-21T16:32:40;7.50;99.90
10722;DHT22;5412;59.450;18.124;2023-03-21T16:35:06;7.40;99.90
10722;DHT22;5412;59.450;18.124;2023-03-21T16:37:33;7.50;99.90
10722;DHT22;5412;59.450;18.124;2023-03-21T16:39:59;7.50;99.90
10722;DHT22;5412;59.450;18.124;2023-03-21T16:42:24;7.50;99.90
10722;DHT22;5412;59.450;18.124;2023-03-21T16:44:50;7.60;99.90
10722;DHT22;5412;59.450;18.124;2023-03-21T16:47:20;7.60;99.90
10722;DHT22;5412;59.450;18.124;2023-03-21T16:49:48;7.60;99.90
10722;DHT22;5412;59.450;18.124;2023-03-21T16:52:14;7.50;99.90
10722;DHT22;5412;59.450;18.124;2023-03-21T16:54:41;7.60;99.90
10722;DHT22;5412;59.450;18.124;2023-03-21T16:57:16;7.60;99.90
10722;DHT22;5412;59.450;18.124;2023-03-21T16:59:44;7.60;99.90
10722;DHT22;5412;59.450;18.124;2023-03-21T17:02:13;7.70;99.90
10722;DHT22;5412;59.450;18.124;2023-03-21T17:04:41;7.70;99.90
10722;DHT22;5412;59.450;18.124;2023-03-21T17:07:10;7.60;99.90
10722;DHT22;5412;59.450;18.124;2023-03-21T17:09:38;7.50;99.90
10722;DHT22;5412;59.450;18.124;2023-03-21T17:12:09;7.40;99.90
10722;DHT22;5412;59.450;18.124;2023-03-21T17:14:39;7.20;99.90
10722;DHT22;5412;59.450;18.124;2023-03-21T17:17:09;7.10;99.90
10722;DHT22;5412;59.450;18.124;2023-03-21T17:19:35;6.90;99.90
10722;DHT22;5412;59.450;18.124;2023-03-21T17:22:01;6.90;99.90
10722;DHT22;5412;59.450;18.124;2023-03-21T17:24:27;6.80;99.90
10722;DHT22;5412;59.450;18.124;2023-03-21T17:26:53;6.80;99.90
10722;DHT22;5412;59.450;18.124;2023-03-21T17:29:19;6.80;99.90
10722;DHT22;5412;59.450;18.124;2023-03-21T17:31:45;6.90;99.90
10722;DHT22;5412;59.450;18.124;2023-03-21T17:34:13;6.90;99.90
10722;DHT22;5412;59.450;18.124;2023-03-21T17:36:40;6.80;99.90
10722;DHT22;5412;59.450;18.124;2023-03-21T17:39:11;6.80;99.90
10722;DHT22;5412;59.450;18.124;2023-03-21T17:41:38;6.70;99.90
10722;DHT22;5412;59.450;18.124;2023-03-21T17:44:06;6.60;99.90
10722;DHT22;5412;59.450;18.124;2023-03-21T17:46:34;6.70;99.90
10722;DHT22;5412;59.450;18.124;2023-03-21T17:49:02;6.70;99.90
10722;DHT22;5412;59.450;18.124;2023-03-21T17:51:28;6.60;99.90
10722;DHT22;5412;59.450;18.124;2023-03-21T17:53:55;6.60;99.90
10722;DHT22;5412;59.450;18.124;2023-03-21T17:56:25;6.60;99.90
10722;DHT22;5412;59.450;18.124;2023-03-21T17:58:52;6.40;99.90